sensor_id;sensor_type;location;lat;lon;timestamp;pressure;altitude;pressure_sealevel;temperature;humidity
49055;BME280;35405;52.344;14.530;2023-09-19T05:07:19;100130.03;;;17.42;81.72
49055;BME280;35405;52.344;14.530;2023-09-19T05:09:46;100137.88;;;17.44;81.87
49055;BME280;35405;52.344;14.530;2023-09-19T05:12:12;100143.81;;;17.47;81.53
49055;BME280;35405;52.344;14.530;2023-09-19T05:14:37;100138.63;;;17.46;81.21
49055;BME280;35405;52.344;14.530;2023-09-19T05:17:02;100138.53;;;17.47;81.19
49055;BME280;35405;52.344;14.530;2023-09-19T05:19:29;100136.81;;;17.46;81.31
49055;BME280;35405;52.344;14.530;2023-09-19T05:21:54;100135.31;;;17.42;81.33
49055;BME280;35405;52.344;14.530;2023-09-19T05:24:20;100140.25;;;17.48;81.51
49055;BME280;35405;52.344;14.530;2023-09-19T05:26:47;100136.25;;;17.57;81.13
49055;BME280;35405;52.344;14.530;2023-09-19T05:29:12;100136.25;;;17.57;80.98
49055;BME280;35405;52.344;14.530;2023-09-19T05:31:37;100139.03;;;17.54;81.07
49055;BME280;35405;52.344;14.530;2023-09-19T05:34:05;100136.16;;;17.58;81.14
49055;BME280;35405;52.344;14.530;2023-09-19T05:36:31;100142.19;;;17.61;80.90
49055;BME280;35405;52.344;14.530;2023-09-19T05:38:56;100139.50;;;17.62;80.89
49055;BME280;35405;52.344;14.530;2023-09-19T05:41:21;100147.16;;;17.67;81.00
49055;BME280;35405;52.344;14.530;2023-09-19T05:43:48;100143.50;;;17.69;80.33
49055;BME280;35405;52.344;14.530;2023-09-19T05:46:15;100151.38;;;17.71;80.39
49055;BME280;35405;52.344;14.530;2023-09-19T05:48:41;100157.31;;;17.74;80.24
49055;BME280;35405;52.344;14.530;2023-09-19T05:51:08;100155.72;;;17.72;80.49
49055;BME280;35405;52.344;14.530;2023-09-19T05:53:34;100163.00;;;17.67;80.28
49055;BME280;35405;52.344;14.530;2023-09-19T05:56:00;100168.09;;;17.71;80.00
49055;BME280;35405;52.344;14.530;2023-09-19T05:58:26;100166.72;;;17.80;80.21
49055;BME280;35405;52.344;14.530;2023-09-19T06:00:51;100168.41;;;17.81;80.05
49055;BME280;35405;52.344;14.530;2023-09-19T06:03:17;100169.97;;;17.85;79.79
49055;BME280;35405;52.344;14.530;2023-09-19T06:05:44;100184.91;;;17.86;79.55
49055;BME280;35405;52.344;14.530;2023-09-19T06:08:11;100178.66;;;17.87;78.94
49055;BME280;35405;52.344;14.530;2023-09-19T06:10:36;100190.38;;;17.83;78.57
49055;BME280;35405;52.344;14.530;2023-09-19T06:13:02;100203.16;;;17.91;78.52
49055;BME280;35405;52.344;14.530;2023-09-19T06:15:31;100211.16;;;17.89;77.99
49055;BME280;35405;52.344;14.530;2023-09-19T06:17:58;100210.25;;;17.90;77.84
49055;BME280;35405;52.344;14.530;2023-09-19T06:20:24;100206.66;;;17.91;77.53
49055;BME280;35405;52.344;14.530;2023-09-19T06:22:50;100210.25;;;17.90;77.27
49055;BME280;35405;52.344;14.530;2023-09-19T06:25:15;100213.81;;;17.89;77.39
49055;BME280;35405;52.344;14.530;2023-09-19T06:27:42;100226.28;;;17.87;76.93
49055;BME280;35405;52.344;14.530;2023-09-19T06:30:08;100237.22;;;17.97;76.28
49055;BME280;35405;52.344;14.530;2023-09-19T06:32:34;100234.31;;;18.01;76.17
49055;BME280;35405;52.344;14.530;2023-09-19T06:34:59;100235.06;;;18.03;75.68
49055;BME280;35405;52.344;14.530;2023-09-19T06:37:26;100233.03;;;18.08;75.81
49055;BME280;35405;52.344;14.530;2023-09-19T06:39:52;100232.88;;;18.11;74.90
49055;BME280;35405;52.344;14.530;2023-09-19T06:42:17;100250.50;;;18.11;74.85
49055;BME280;35405;52.344;14.530;2023-09-19T06:44:43;100253.25;;;18.09;73.80
49055;BME280;35405;52.344;14.530;2023-09-19T06:47:08;100248.31;;;18.03;73.57
49055;BME280;35405;52.344;14.530;2023-09-19T06:49:35;100254.28;;;18.07;73.40
49055;BME280;35405;52.344;14.530;2023-09-19T06:52:00;100255.16;;;18.07;73.84
49055;BME280;35405;52.344;14.530;2023-09-19T06:54:26;100257.38;;;17.99;73.32
49055;BME280;35405;52.344;14.530;2023-09-19T06:56:54;100268.19;;;18.10;73.28
49055;BME280;35405;52.344;14.530;2023-09-19T06:59:20;100270.41;;;18.18;72.82
49055;BME280;35405;52.344;14.530;2023-09-19T07:01:45;100271.41;;;18.31;72.08
49055;BME280;35405;52.344;14.530;2023-09-19T07:04:12;100274.66;;;18.36;71.07
49055;BME280;35405;52.344;14.530;2023-09-19T07:06:37;100278.50;;;18.31;70.50
49055;BME280;35405;52.344;14.530;2023-09-19T07:09:03;100287.91;;;18.36;70.56
49055;BME280;35405;52.344;14.530;2023-09-19T07:11:29;100281.94;;;18.33;69.83
49055;BME280;35405;52.344;14.530;2023-09-19T07:13:55;100280.66;;;18.40;69.75
49055;BME280;35405;52.344;14.530;2023-09-19T07:16:21;100284.28;;;18.53;69.35
49055;BME280;35405;52.344;14.530;2023-09-19T07:18:55;100289.75;;;18.66;69.26
49055;BME280;35405;52.344;14.530;2023-09-19T07:21:21;100302.19;;;18.80;68.99
49055;BME280;35405;52.344;14.530;2023-09-19T07:23:46;100299.19;;;18.86;68.72
49055;BME280;35405;52.344;14.530;2023-09-19T07:26:12;100304.03;;;18.93;68.38
49055;BME280;35405;52.344;14.530;2023-09-19T07:28:37;100295.13;;;18.94;67.57
49055;BME280;35405;52.344;14.530;2023-09-19T07:31:02;100290.31;;;19.01;67.38
49055;BME280;35405;52.344;14.530;2023-09-19T07:33:28;100294.69;;;19.16;67.14
49055;BME280;35405;52.344;14.530;2023-09-19T07:35:53;100304.88;;;19.38;66.85
49055;BME280;35405;52.344;14.530;2023-09-19T07:38:18;100293.84;;;19.44;64.19
49055;BME280;35405;52.344;14.530;2023-09-19T07:40:44;100289.50;;;19.43;64.34
49055;BME280;35405;52.344;14.530;2023-09-19T07:43:09;100297.09;;;19.49;63.95
49055;BME280;35405;52.344;14.530;2023-09-19T07:45:34;100300.00;;;19.45;63.43
49055;BME280;35405;52.344;14.530;2023-09-19T07:48:01;100311.50;;;19.45;63.49
49055;BME280;35405;52.344;14.530;2023-09-19T07:50:29;100318.53;;;19.46;62.75
49055;BME280;35405;52.344;14.530;2023-09-19T07:52:54;100316.84;;;19.60;62.85
49055;BME280;35405;52.344;14.530;2023-09-19T07:55:21;100331.91;;;19.73;62.58
49055;BME280;35405;52.344;14.530;2023-09-19T07:57:49;100331.91;;;19.73;62.41
49055;BME280;35405;52.344;14.530;2023-09-19T08:00:14;100334.00;;;19.68;61.14
49055;BME280;35405;52.344;14.530;2023-09-19T08:02:40;100346.59;;;19.65;60.99
49055;BME280;35405;52.344;14.530;2023-09-19T08:05:06;100342.91;;;19.67;61.18
49055;BME280;35405;52.344;14.530;2023-09-19T08:07:35;100352.94;;;19.77;60.82
49055;BME280;35405;52.344;14.530;2023-09-19T08:10:01;100358.38;;;19.75;61.00
49055;BME280;35405;52.344;14.530;2023-09-19T08:12:26;100356.72;;;19.72;60.95
49055;BME280;35405;52.344;14.530;2023-09-19T08:14:51;100366.03;;;19.65;60.37
49055;BME280;35405;52.344;14.530;2023-09-19T08:17:17;100370.47;;;19.65;60.56
49055;BME280;35405;52.344;14.530;2023-09-19T08:19:42;100380.44;;;19.61;59.54
49055;BME280;35405;52.344;14.530;2023-09-19T08:22:10;100380.03;;;19.53;60.02
49055;BME280;35405;52.344;14.530;2023-09-19T08:24:36;100375.09;;;19.47;60.70
49055;BME280;35405;52.344;14.530;2023-09-19T08:27:03;100379.44;;;19.48;60.49
49055;BME280;35405;52.344;14.530;2023-09-19T08:29:29;100382.69;;;19.53;60.52
49055;BME280;35405;52.344;14.530;2023-09-19T08:31:55;100380.81;;;19.69;60.78
49055;BME280;35405;52.344;14.530;2023-09-19T08:34:20;100383.47;;;19.84;60.60
49055;BME280;35405;52.344;14.530;2023-09-19T08:36:46;100379.88;;;19.85;60.27
49055;BME280;35405;52.344;14.530;2023-09-19T08:39:13;100378.75;;;19.89;59.30
49055;BME280;35405;52.344;14.530;2023-09-19T08:41:38;100372.28;;;19.93;58.79
49055;BME280;35405;52.344;14.530;2023-09-19T08:44:04;100373.81;;;19.97;58.37
49055;BME280;35405;52.344;14.530;2023-09-19T08:46:30;100369.53;;;20.09;57.86
49055;BME280;35405;52.344;14.530;2023-09-19T08:49:05;100368.19;;;20.16;57.04
49055;BME280;35405;52.344;14.530;2023-09-19T08:51:39;100372.25;;;20.21;56.57
49055;BME280;35405;52.344;14.530;2023-09-19T08:54:09;100371.19;;;20.38;56.68
49055;BME280;35405;52.344;14.530;2023-09-19T08:56:38;100370.84;;;20.57;55.97
49055;BME280;35405;52.344;14.530;2023-09-19T08:59:04;100356.50;;;20.87;55.32
49055;BME280;35405;52.344;14.530;2023-09-19T09:01:32;100351.78;;;21.17;54.26
49055;BME280;35405;52.344;14.530;2023-09-19T09:03:58;100332.88;;;21.34;53.40
49055;BME280;35405;52.344;14.530;2023-09-19T09:06:24;100334.50;;;21.50;53.00
49055;BME280;35405;52.344;14.530;2023-09-19T09:08:53;100332.75;;;21.74;52.04
49055;BME280;35405;52.344;14.530;2023-09-19T09:11:18;100334.63;;;21.98;51.76
49055;BME280;35405;52.344;14.530;2023-09-19T09:13:44;100344.53;;;22.08;50.29
49055;BME280;35405;52.344;14.530;2023-09-19T09:16:10;100343.72;;;22.32;49.52
49055;BME280;35405;52.344;14.530;2023-09-19T09:18:36;100344.19;;;22.50;49.02
49055;BME280;35405;52.344;14.530;2023-09-19T09:21:01;100341.63;;;22.48;48.24
49055;BME280;35405;52.344;14.530;2023-09-19T09:23:26;100346.25;;;22.70;48.04
49055;BME280;35405;52.344;14.530;2023-09-19T09:25:54;100354.25;;;22.70;47.65
49055;BME280;35405;52.344;14.530;2023-09-19T09:28:26;100350.25;;;22.52;47.81
49055;BME280;35405;52.344;14.530;2023-09-19T09:30:53;100373.84;;;22.21;48.13
49055;BME280;35405;52.344;14.530;2023-09-19T09:33:18;100383.75;;;21.93;47.80
49055;BME280;35405;52.344;14.530;2023-09-19T09:38:12;100365.25;;;21.54;46.90
49055;BME280;35405;52.344;14.530;2023-09-19T09:40:48;100375.56;;;21.84;46.01
49055;BME280;35405;52.344;14.530;2023-09-19T09:43:29;100374.47;;;22.12;45.16
49055;BME280;35405;52.344;14.530;2023-09-19T09:51:40;100374.25;;;22.52;43.13
49055;BME280;35405;52.344;14.530;2023-09-19T09:54:11;100375.34;;;22.73;42.73
49055;BME280;35405;52.344;14.530;2023-09-19T09:56:56;100378.00;;;22.97;42.52
49055;BME280;35405;52.344;14.530;2023-09-19T10:02:08;100380.31;;;22.54;42.32
49055;BME280;35405;52.344;14.530;2023-09-19T10:04:38;100368.34;;;22.59;42.00
49055;BME280;35405;52.344;14.530;2023-09-19T10:07:25;100384.44;;;22.70;42.04
49055;BME280;35405;52.344;14.530;2023-09-19T10:09:53;100375.56;;;22.70;41.92
49055;BME280;35405;52.344;14.530;2023-09-19T10:12:24;100381.91;;;22.80;41.75
49055;BME280;35405;52.344;14.530;2023-09-19T10:14:52;100381.75;;;22.70;40.60
49055;BME280;35405;52.344;14.530;2023-09-19T10:17:18;100384.53;;;22.69;40.71
49055;BME280;35405;52.344;14.530;2023-09-19T10:22:16;100383.59;;;22.94;40.24
49055;BME280;35405;52.344;14.530;2023-09-19T10:24:45;100383.84;;;22.91;40.12
49055;BME280;35405;52.344;14.530;2023-09-19T10:27:11;100394.25;;;22.94;39.98
49055;BME280;35405;52.344;14.530;2023-09-19T10:29:38;100397.94;;;22.80;38.49
49055;BME280;35405;52.344;14.530;2023-09-19T10:32:04;100404.03;;;22.45;39.10
49055;BME280;35405;52.344;14.530;2023-09-19T10:34:30;100409.47;;;22.44;39.86
49055;BME280;35405;52.344;14.530;2023-09-19T10:36:57;100420.25;;;22.42;39.55
49055;BME280;35405;52.344;14.530;2023-09-19T10:39:22;100422.94;;;22.42;37.97
49055;BME280;35405;52.344;14.530;2023-09-19T10:41:51;100425.47;;;22.44;37.93
49055;BME280;35405;52.344;14.530;2023-09-19T10:44:19;100416.41;;;22.46;37.72
49055;BME280;35405;52.344;14.530;2023-09-19T10:46:47;100420.00;;;22.58;38.40
49055;BME280;35405;52.344;14.530;2023-09-19T10:49:13;100408.00;;;22.77;37.95
49055;BME280;35405;52.344;14.530;2023-09-19T10:51:39;100405.66;;;22.72;35.80
49055;BME280;35405;52.344;14.530;2023-09-19T10:54:07;100410.69;;;22.64;34.99
49055;BME280;35405;52.344;14.530;2023-09-19T10:56:37;100421.66;;;22.72;35.91
49055;BME280;35405;52.344;14.530;2023-09-19T10:59:07;100411.56;;;22.88;36.93
49055;BME280;35405;52.344;14.530;2023-09-19T11:01:43;100409.56;;;22.79;37.81
49055;BME280;35405;52.344;14.530;2023-09-19T11:07:03;100419.22;;;22.32;37.33
49055;BME280;35405;52.344;14.530;2023-09-19T11:09:44;100417.97;;;22.12;37.12
49055;BME280;35405;52.344;14.530;2023-09-19T11:15:06;100405.38;;;22.27;36.99
49055;BME280;35405;52.344;14.530;2023-09-19T11:17:39;100400.63;;;22.43;37.08
49055;BME280;35405;52.344;14.530;2023-09-19T11:30:34;100409.88;;;22.14;35.39
49055;BME280;35405;52.344;14.530;2023-09-19T11:36:12;100415.22;;;22.14;36.06
49055;BME280;35405;52.344;14.530;2023-09-19T11:46:28;100412.00;;;22.09;37.04
49055;BME280;35405;52.344;14.530;2023-09-19T11:48:54;100399.72;;;22.19;36.34
49055;BME280;35405;52.344;14.530;2023-09-19T11:51:22;100413.41;;;22.14;36.38
49055;BME280;35405;52.344;14.530;2023-09-19T11:53:51;100401.09;;;22.25;36.60
49055;BME280;35405;52.344;14.530;2023-09-19T11:56:18;100409.88;;;22.01;36.71
49055;BME280;35405;52.344;14.530;2023-09-19T11:58:44;100412.63;;;22.12;36.85
49055;BME280;35405;52.344;14.530;2023-09-19T12:01:11;100413.56;;;22.37;36.48
49055;BME280;35405;52.344;14.530;2023-09-19T12:03:42;100411.63;;;22.39;36.14
49055;BME280;35405;52.344;14.530;2023-09-19T12:06:13;100414.69;;;22.45;36.04
49055;BME280;35405;52.344;14.530;2023-09-19T12:08:39;100407.50;;;22.59;36.51
49055;BME280;35405;52.344;14.530;2023-09-19T12:11:07;100418.47;;;22.67;36.34
49055;BME280;35405;52.344;14.530;2023-09-19T12:13:35;100427.06;;;22.46;36.04
49055;BME280;35405;52.344;14.530;2023-09-19T12:16:10;100420.88;;;22.46;36.52
49055;BME280;35405;52.344;14.530;2023-09-19T12:18:36;100430.81;;;22.44;37.08
49055;BME280;35405;52.344;14.530;2023-09-19T12:21:01;100419.19;;;22.45;37.17
49055;BME280;35405;52.344;14.530;2023-09-19T12:23:29;100420.28;;;22.30;37.25
49055;BME280;35405;52.344;14.530;2023-09-19T12:25:55;100421.81;;;22.21;37.27
49055;BME280;35405;52.344;14.530;2023-09-19T12:28:22;100413.91;;;22.19;37.24
49055;BME280;35405;52.344;14.530;2023-09-19T12:30:50;100409.50;;;22.31;36.54
49055;BME280;35405;52.344;14.530;2023-09-19T12:33:18;100418.88;;;22.37;36.92
49055;BME280;35405;52.344;14.530;2023-09-19T12:35:46;100422.28;;;22.39;36.87
49055;BME280;35405;52.344;14.530;2023-09-19T12:38:21;100419.41;;;22.42;37.17
49055;BME280;35405;52.344;14.530;2023-09-19T12:40:48;100418.78;;;22.38;37.20
49055;BME280;35405;52.344;14.530;2023-09-19T12:43:14;100416.03;;;22.27;37.11
49055;BME280;35405;52.344;14.530;2023-09-19T12:45:40;100423.56;;;22.33;37.47
49055;BME280;35405;52.344;14.530;2023-09-19T12:48:20;100421.53;;;22.50;37.48
49055;BME280;35405;52.344;14.530;2023-09-19T12:51:04;100423.59;;;22.70;37.25
49055;BME280;35405;52.344;14.530;2023-09-19T12:53:35;100424.59;;;22.80;37.42
49055;BME280;35405;52.344;14.530;2023-09-19T12:56:05;100423.63;;;22.94;37.40
49055;BME280;35405;52.344;14.530;2023-09-19T12:58:33;100419.25;;;22.93;37.48
49055;BME280;35405;52.344;14.530;2023-09-19T13:00:59;100422.91;;;22.79;35.72
49055;BME280;35405;52.344;14.530;2023-09-19T13:03:28;100427.75;;;22.61;36.23
49055;BME280;35405;52.344;14.530;2023-09-19T13:08:32;100429.81;;;22.58;37.03
49055;BME280;35405;52.344;14.530;2023-09-19T13:16:04;100416.16;;;22.62;37.01
49055;BME280;35405;52.344;14.530;2023-09-19T13:18:41;100423.06;;;22.65;37.08
49055;BME280;35405;52.344;14.530;2023-09-19T13:21:11;100430.25;;;22.52;37.48
49055;BME280;35405;52.344;14.530;2023-09-19T13:23:52;100425.94;;;22.62;37.66
49055;BME280;35405;52.344;14.530;2023-09-19T13:26:18;100425.50;;;22.68;37.48
49055;BME280;35405;52.344;14.530;2023-09-19T13:28:44;100429.13;;;22.67;37.60
49055;BME280;35405;52.344;14.530;2023-09-19T13:31:09;100432.47;;;22.58;37.22
49055;BME280;35405;52.344;14.530;2023-09-19T13:33:42;100425.59;;;22.42;37.07
49055;BME280;35405;52.344;14.530;2023-09-19T13:36:07;100426.63;;;22.53;37.10
49055;BME280;35405;52.344;14.530;2023-09-19T13:38:33;100434.06;;;22.60;37.21
49055;BME280;35405;52.344;14.530;2023-09-19T13:40:59;100419.28;;;22.80;37.20
49055;BME280;35405;52.344;14.530;2023-09-19T13:43:25;100422.91;;;22.79;37.13
49055;BME280;35405;52.344;14.530;2023-09-19T13:45:51;100411.38;;;22.79;36.97
49055;BME280;35405;52.344;14.530;2023-09-19T13:48:16;100422.03;;;22.55;37.18
49055;BME280;35405;52.344;14.530;2023-09-19T13:50:45;100414.69;;;22.45;37.41
49055;BME280;35405;52.344;14.530;2023-09-19T13:53:10;100427.34;;;22.55;37.06
49055;BME280;35405;52.344;14.530;2023-09-19T13:55:36;100427.34;;;22.55;37.38
49055;BME280;35405;52.344;14.530;2023-09-19T13:58:02;100428.59;;;22.62;37.39
49055;BME280;35405;52.344;14.530;2023-09-19T14:00:31;100429.66;;;22.72;37.14
49055;BME280;35405;52.344;14.530;2023-09-19T14:02:59;100429.69;;;22.83;37.17
49055;BME280;35405;52.344;14.530;2023-09-19T14:05:25;100425.88;;;22.87;37.10
49055;BME280;35405;52.344;14.530;2023-09-19T14:07:53;100423.34;;;22.86;37.51
49055;BME280;35405;52.344;14.530;2023-09-19T14:10:19;100424.72;;;22.91;37.83
49055;BME280;35405;52.344;14.530;2023-09-19T14:12:45;100420.31;;;22.90;37.84
49055;BME280;35405;52.344;14.530;2023-09-19T14:15:10;100420.97;;;22.81;38.20
49055;BME280;35405;52.344;14.530;2023-09-19T14:17:35;100417.91;;;22.74;38.29
49055;BME280;35405;52.344;14.530;2023-09-19T14:20:01;100420.94;;;22.70;38.10
49055;BME280;35405;52.344;14.530;2023-09-19T14:22:26;100424.53;;;22.69;38.39
49055;BME280;35405;52.344;14.530;2023-09-19T14:24:51;100429.38;;;22.64;38.59
49055;BME280;35405;52.344;14.530;2023-09-19T14:27:17;100416.75;;;22.42;38.33
49055;BME280;35405;52.344;14.530;2023-09-19T14:29:43;100421.44;;;22.38;38.74
49055;BME280;35405;52.344;14.530;2023-09-19T14:32:08;100427.00;;;22.35;38.86
49055;BME280;35405;52.344;14.530;2023-09-19T14:34:33;100429.66;;;22.35;38.91
49055;BME280;35405;52.344;14.530;2023-09-19T14:36:58;100423.00;;;22.41;38.59
49055;BME280;35405;52.344;14.530;2023-09-19T14:39:24;100419.91;;;22.47;38.77
49055;BME280;35405;52.344;14.530;2023-09-19T14:41:50;100432.63;;;22.43;39.00
49055;BME280;35405;52.344;14.530;2023-09-19T14:44:15;100428.47;;;22.39;38.96
49055;BME280;35405;52.344;14.530;2023-09-19T14:46:41;100426.09;;;22.47;38.54
49055;BME280;35405;52.344;14.530;2023-09-19T14:49:06;100419.19;;;22.45;38.56
49055;BME280;35405;52.344;14.530;2023-09-19T14:51:31;100418.50;;;22.54;38.46
49055;BME280;35405;52.344;14.530;2023-09-19T14:53:57;100423.66;;;22.44;37.92
49055;BME280;35405;52.344;14.530;2023-09-19T14:56:22;100417.38;;;22.33;37.95
49055;BME280;35405;52.344;14.530;2023-09-19T14:58:49;100420.72;;;22.24;37.41
49055;BME280;35405;52.344;14.530;2023-09-19T15:01:14;100418.59;;;22.16;37.43
49055;BME280;35405;52.344;14.530;2023-09-19T15:03:40;100422.00;;;22.18;37.60
49055;BME280;35405;52.344;14.530;2023-09-19T15:06:06;100422.66;;;22.22;37.41
49055;BME280;35405;52.344;14.530;2023-09-19T15:08:35;100409.03;;;22.13;37.57
49055;BME280;35405;52.344;14.530;2023-09-19T15:11:01;100413.72;;;22.10;37.54
49055;BME280;35405;52.344;14.530;2023-09-19T15:13:30;100410.81;;;22.13;37.72
49055;BME280;35405;52.344;14.530;2023-09-19T15:18:27;100413.50;;;22.00;37.38
49055;BME280;35405;52.344;14.530;2023-09-19T15:20:52;100411.38;;;21.92;37.40
49055;BME280;35405;52.344;14.530;2023-09-19T15:23:18;100411.56;;;21.89;37.44
49055;BME280;35405;52.344;14.530;2023-09-19T15:25:50;100408.59;;;21.81;37.81
49055;BME280;35405;52.344;14.530;2023-09-19T15:28:15;100407.31;;;21.74;38.03
49055;BME280;35405;52.344;14.530;2023-09-19T15:30:40;100410.84;;;21.75;37.89
49055;BME280;35405;52.344;14.530;2023-09-19T15:33:06;100410.28;;;21.70;38.02
49055;BME280;35405;52.344;14.530;2023-09-19T15:35:31;100411.66;;;21.62;38.41
49055;BME280;35405;52.344;14.530;2023-09-19T15:37:56;100411.13;;;21.70;38.32
49055;BME280;35405;52.344;14.530;2023-09-19T15:40:23;100409.75;;;21.77;38.42
49055;BME280;35405;52.344;14.530;2023-09-19T15:42:49;100412.41;;;21.77;38.62
49055;BME280;35405;52.344;14.530;2023-09-19T15:45:14;100411.25;;;21.69;38.91
49055;BME280;35405;52.344;14.530;2023-09-19T15:47:41;100411.78;;;21.61;39.08
49055;BME280;35405;52.344;14.530;2023-09-19T15:50:07;100414.34;;;21.62;39.06
49055;BME280;35405;52.344;14.530;2023-09-19T15:52:34;100411.25;;;21.56;39.24
49055;BME280;35405;52.344;14.530;2023-09-19T15:55:02;100405.28;;;21.39;39.17
49055;BME280;35405;52.344;14.530;2023-09-19T15:57:27;100406.66;;;21.32;39.26
49055;BME280;35405;52.344;14.530;2023-09-19T15:59:53;100413.13;;;21.28;39.52
49055;BME280;35405;52.344;14.530;2023-09-19T16:02:18;100406.06;;;21.27;39.61
49055;BME280;35405;52.344;14.530;2023-09-19T16:04:43;100412.69;;;21.22;39.67
49055;BME280;35405;52.344;14.530;2023-09-19T16:07:09;100417.22;;;21.20;39.76
49055;BME280;35405;52.344;14.530;2023-09-19T16:09:34;100408.16;;;21.09;40.14
49055;BME280;35405;52.344;14.530;2023-09-19T16:12:00;100410.69;;;20.98;40.21
49055;BME280;35405;52.344;14.530;2023-09-19T16:14:25;100411.84;;;20.94;40.33
49055;BME280;35405;52.344;14.530;2023-09-19T16:16:52;100415.03;;;20.87;40.42
49055;BME280;35405;52.344;14.530;2023-09-19T16:19:18;100418.78;;;20.70;40.00
49055;BME280;35405;52.344;14.530;2023-09-19T16:21:43;100418.66;;;20.71;40.29
49055;BME280;35405;52.344;14.530;2023-09-19T16:24:09;100418.78;;;20.70;40.29
49055;BME280;35405;52.344;14.530;2023-09-19T16:26:36;100423.22;;;20.69;40.32
49055;BME280;35405;52.344;14.530;2023-09-19T16:29:02;100417.66;;;20.60;40.12
49055;BME280;35405;52.344;14.530;2023-09-19T16:31:27;100418.44;;;20.47;40.35
49055;BME280;35405;52.344;14.530;2023-09-19T16:33:53;100419.88;;;20.39;40.20
49055;BME280;35405;52.344;14.530;2023-09-19T16:36:20;100423.47;;;20.38;40.57
49055;BME280;35405;52.344;14.530;2023-09-19T16:38:47;100419.19;;;20.35;40.53
49055;BME280;35405;52.344;14.530;2023-09-19T16:41:16;100417.59;;;20.33;40.29
49055;BME280;35405;52.344;14.530;2023-09-19T16:43:42;100424.03;;;20.28;40.66
49055;BME280;35405;52.344;14.530;2023-09-19T16:46:08;100415.53;;;20.23;40.75
49055;BME280;35405;52.344;14.530;2023-09-19T16:48:36;100423.88;;;20.17;41.04
49055;BME280;35405;52.344;14.530;2023-09-19T16:51:02;100420.84;;;20.09;41.52
49055;BME280;35405;52.344;14.530;2023-09-19T16:53:33;100420.19;;;20.06;41.22
49055;BME280;35405;52.344;14.530;2023-09-19T16:58:28;100423.59;;;19.93;41.61
49055;BME280;35405;52.344;14.530;2023-09-19T17:00:55;100423.53;;;19.95;41.45
49055;BME280;35405;52.344;14.530;2023-09-19T17:03:20;100425.69;;;19.88;41.75
49055;BME280;35405;52.344;14.530;2023-09-19T17:05:47;100425.00;;;19.85;41.76
49055;BME280;35405;52.344;14.530;2023-09-19T17:08:12;100432.81;;;19.73;42.52
49055;BME280;35405;52.344;14.530;2023-09-19T17:10:37;100429.56;;;19.68;42.84
49055;BME280;35405;52.344;14.530;2023-09-19T17:13:04;100440.75;;;19.59;42.95
49055;BME280;35405;52.344;14.530;2023-09-19T17:15:33;100441.44;;;19.47;42.98
49055;BME280;35405;52.344;14.530;2023-09-19T17:17:58;100441.91;;;19.39;43.27
49055;BME280;35405;52.344;14.530;2023-09-19T17:20:24;100448.56;;;19.31;43.80
49055;BME280;35405;52.344;14.530;2023-09-19T17:22:49;100441.16;;;19.21;43.69
49055;BME280;35405;52.344;14.530;2023-09-19T17:25:15;100450.25;;;19.17;43.80
49055;BME280;35405;52.344;14.530;2023-09-19T17:27:41;100447.09;;;19.11;44.26
49055;BME280;35405;52.344;14.530;2023-09-19T17:30:08;100440.34;;;19.05;44.59
49055;BME280;35405;52.344;14.530;2023-09-19T17:32:37;100441.56;;;19.00;44.83
49055;BME280;35405;52.344;14.530;2023-09-19T17:35:02;100443.69;;;18.93;44.58
49055;BME280;35405;52.344;14.530;2023-09-19T17:37:28;100443.28;;;18.85;44.89
49055;BME280;35405;52.344;14.530;2023-09-19T17:39:53;100448.00;;;18.80;45.26
49055;BME280;35405;52.344;14.530;2023-09-19T17:42:18;100446.63;;;18.73;45.33
49055;BME280;35405;52.344;14.530;2023-09-19T17:44:44;100449.75;;;18.63;45.90
49055;BME280;35405;52.344;14.530;2023-09-19T17:47:09;100454.47;;;18.58;46.21
49055;BME280;35405;52.344;14.530;2023-09-19T17:49:34;100456.50;;;18.53;46.59
49055;BME280;35405;52.344;14.530;2023-09-19T17:51:59;100455.06;;;18.48;46.63
49055;BME280;35405;52.344;14.530;2023-09-19T17:54:25;100460.53;;;18.45;46.73
49055;BME280;35405;52.344;14.530;2023-09-19T17:56:50;100464.34;;;18.39;46.83
49055;BME280;35405;52.344;14.530;2023-09-19T17:59:15;100462.06;;;18.33;46.73
49055;BME280;35405;52.344;14.530;2023-09-19T18:01:41;100464.78;;;18.31;47.03
49055;BME280;35405;52.344;14.530;2023-09-19T18:04:08;100474.69;;;18.28;46.98
49055;BME280;35405;52.344;14.530;2023-09-19T18:06:34;100465.72;;;18.30;47.02
49055;BME280;35405;52.344;14.530;2023-09-19T18:09:00;100475.63;;;18.27;47.21
49055;BME280;35405;52.344;14.530;2023-09-19T18:11:26;100477.50;;;18.25;46.92
49055;BME280;35405;52.344;14.530;2023-09-19T18:13:54;100483.19;;;18.17;47.40
49055;BME280;35405;52.344;14.530;2023-09-19T18:16:19;100479.97;;;18.12;47.20
49055;BME280;35405;52.344;14.530;2023-09-19T18:18:45;100477.72;;;18.04;47.39
49055;BME280;35405;52.344;14.530;2023-09-19T18:21:15;100479.91;;;17.96;47.60
49055;BME280;35405;52.344;14.530;2023-09-19T18:23:40;100479.44;;;17.88;47.74
49055;BME280;35405;52.344;14.530;2023-09-19T18:26:06;100485.84;;;17.84;47.89
49055;BME280;35405;52.344;14.530;2023-09-19T18:28:35;100489.81;;;17.75;48.39
49055;BME280;35405;52.344;14.530;2023-09-19T18:31:04;100496.22;;;17.71;48.31
49055;BME280;35405;52.344;14.530;2023-09-19T18:33:31;100496.22;;;17.71;48.29
49055;BME280;35405;52.344;14.530;2023-09-19T18:36:00;100492.06;;;17.66;48.85
49055;BME280;35405;52.344;14.530;2023-09-19T18:38:27;100488.72;;;17.62;48.81